Serena, IL (60549)

11:59 AM CDT on May 25, 2017 (GMT -0500)
Weather at Chuck and Pats | | Change Station
Active Advisory: Flood Advisory Active Notice: Flood Advisory

Elev 645 ft 41.51 °N, 88.74 °W | Updated 2 seconds ago

Overcast
Overcast
61.1 °F
Feels Like 61.1 °F
N
6.8
Wind Variable Wind from NNW
Gusts 11.5 mph

Today
High -- | Low -- °F
--% Chance of Precip.
Yesterday
High -- | Low -- °F
Precip. -- in
Pressure 29.65 in
Visibility 10.0 miles
Clouds Overcast 1500 ft
Dew Point 56 °F
Humidity 82%
Rainfall 0.00 in
Snow Depth Not available.
5:27 AM 8:16 PM
Waning Crescent, 0% visible
METAR KC09 251635Z AUTO 32004KT 10SM OVC015 15/12 A2965 RMK AO2 T01510118
Pressure 29.65 in
Visibility 10.0 miles
Clouds Overcast 1500 ft
Dew Point 56 °F
Humidity 82%
Rainfall 0.00 in
Snow Depth Not available.
5:27 AM 8:16 PM
Waning Crescent, 0% visible
METAR KC09 251635Z AUTO 32004KT 10SM OVC015 15/12 A2965 RMK AO2 T01510118

Get Your Daily Forecast Email!

Thanks for signing up!

Be on the lookout for a verification email in your inbox.

You'll start receiving severe weather alerts in your inbox..

×

10-Day Weather Forecast

Almanac

Astronomy

May. 25, 2017 Rise Set
Actual Time
Civil Twilight
Nautical Twilight
Astronomical Twilight
Moon
Length of Visible Light
Length of Day
Tomorrow will be .
, % of the Moon is Illuminated

Today's Extremes

State Highs State Lows

Community

WunderPhotos

Category 6

Welcome to Category 6. This is the collective home for Weather Underground's featured writeups by Dr. Jeff Masters (right), Bob Henson (left), Chris Burt, and other regular contributors.

Nearby

Air Quality

  Air Quality AQ Index Pollutant
Not available.

Snow Depth

Station Depth Elevation

Earthquake Activity

City Distance Mag. Time & Date
Minimum magnitude displayed is 2.5.

Coastal Water Temperatures

Place Temperature

Stations

Nearby Weather Stations

Station Location Temp. Windchill Dew Point Humidity Wind Precip. Elev Updated Type
                   

Watches & Warnings

Flood Advisory
Issued: 11:00 AM CDT May. 25, 2017 – National Weather Service

The flood advisory continues for
the Illinois River at La Salle
* until Friday afternoon.
* At 1045 am Thursday the stage was 18.8 feet.
* Action stage is 19.0 feet.
* Flood stage is 20.0 feet.
* Forecast... the river will rise to near 19.0 feet by early Friday.


Lat... Lon 4128 8896 4126 8930 4135 8929 4137 8896



Bmd